الصفحة الرئيسية
METAR-TAF:

METAR-TAF

مطار :

أوسلو, النرويج

مطار أوسلو-غاردرموين

دائرة عرض: 60-12N, خط طول: 011-05E, ارتفاع: 208 متر

مراقبة الطقس الحالي

تاريخ ووقت الإصدار 32 دقيقة قبل الساعة 17:50UTC
ريح 4 عقدة من الشمال الشرقي
درجة الحرارة -3°درجة مئوية
الرطوبة 93%
ضغط 1018 hPa
الرؤية 10 كم أو أكثر
غيوم مفككة على ارتفاع 1700 قدم

METAR: ENGM 181750Z 04004KT 9999 BKN017 M03/M04 Q1018 NOSIG

زمن: 19:22 (18:22 UTC)

توقعات

التوقعات صالحة من18 الساعة 18 UTC إلى 19 الساعة 18 UTC
ريح 5 عقدة من الشمال
الرؤية: 8000 متر
غيوم متفرقة على ارتفاع 800 قدم
غيوم مفككة على ارتفاع 1500 قدم
نظرية الاحتمالات 40%
من 18 الساعة 18 UTC إلى 18 الساعة 20 UTC
الرؤية: 4000 متر
غيوم مفككة على ارتفاع 1200 قدم
غشاء
مؤقت
من 19 الساعة 00 UTC إلى 19 الساعة 15 UTC
الرؤية: 3000 متر
غيوم مفككة على ارتفاع 500 قدم
ثلوج خفيفة, غشاء

TAF: ENGM 1818/1918 36005KT 8000 SCT008 BKN015 PROB40 1818/1820 4000 BR BKN012 TEMPO 1900/1915 3000 -SN BR BKN005

أرصاد الطقس والتوقعات من أكثر من 4000 مطار (تقارير الطقس للمطار METAR والتنبؤ بالطقس بالمطارTAF).

المحطات المتاحة هي النقط الصفراء والحمراء على الخريطة.

حرك المؤشر فوق النقطة لمعرفة اسم المحطة.

ثم انقر لمعرفة أرصاد وتوقعات الطقس.

لتغيير الخارطة: اضغط على الأزرار الخضراء مع رمز الصليب الأسود للتكبير. على الزر الأخضر مع شرطة للتصغير، أو على الأسهم الخضراء للخرائط المجاورة.


METAR-TAF: